»·PEaware :: N927ER KPDX-KOLM

N927ER :: KPDX-KOLM

FLIGHT INFORMATION

Flight Status: Arrived
Operator: Privately registered:
United States
More flights under this callsign
Pilot: Robert C. (14767)
Aircraft: BEECH AIRCRAFT TURBO BARON
(BE56)
More flights by this aircraft type
Origin: KPDX Portland Intl
United States
Destination: KOLM Olympia
United States
More flights between these airports :: More routes between these airports
Route: +PTLD1 BTG V287 OLM
File this flight plan on PilotEdge
Remarks:
Altitude:
(Current/Filed)
8,000ft
Speed:
(Current/Filed)
160kts
Departed: 12-Dec-17 02:27 PM
Arrived: 12-Dec-17 03:19 PM
Distance/Time
Traveled:
83nm/0:52
Distance/Time
To Go:
Arrived

Flight Plot

Page will automatically refresh every two minutes.

Flight plan parsing failed; only flown route is shown


Map Options




Map Legend


Flown Route
Filed Route
Departure Airport
Arrival Airport
Navaid (VOR, NDB)
Fix

Horizontal Profiles

Position Reports

Time Latitude Longitude Heading Altitude Ground
Speed
12-Dec-17 14:10 45.588256 -122.613769 53 15ft 0kts
12-Dec-17 14:11 45.588256 -122.613769 53 15ft 0kts
12-Dec-17 14:12 45.588256 -122.613769 53 15ft 0kts
12-Dec-17 14:13 45.588256 -122.613769 53 15ft 0kts
12-Dec-17 14:14 45.588256 -122.613769 53 15ft 0kts
12-Dec-17 14:15 45.588256 -122.613769 53 15ft 0kts
12-Dec-17 14:16 45.588256 -122.613769 53 15ft 0kts
12-Dec-17 14:17 45.588256 -122.613769 53 15ft 0kts
12-Dec-17 14:18 45.588256 -122.613769 53 15ft 0kts
12-Dec-17 14:19 45.588256 -122.613769 53 15ft 0kts
12-Dec-17 14:20 45.588256 -122.613769 53 15ft 0kts
12-Dec-17 14:21 45.588256 -122.613769 53 15ft 0kts
12-Dec-17 14:22 45.588256 -122.613769 53 15ft 0kts
12-Dec-17 14:23 45.588256 -122.613769 53 15ft 0kts
12-Dec-17 14:24 45.588256 -122.613769 53 15ft 0kts
12-Dec-17 14:25 45.588256 -122.613769 53 15ft 0kts
12-Dec-17 14:26 45.588256 -122.613769 53 15ft 0kts
12-Dec-17 14:27 45.588256 -122.613769 53 15ft 0kts
12-Dec-17 14:28 45.588322 -122.613649 51 15ft 4kts
12-Dec-17 14:29 45.590200 -122.611703 5 16ft 1kts
12-Dec-17 14:30 45.592069 -122.620319 296 15ft 26kts
12-Dec-17 14:31 45.594215 -122.622001 28 16ft 0kts
12-Dec-17 14:32 45.594442 -122.621813 29 16ft 11kts
12-Dec-17 14:33 45.588990 -122.605900 119 187ft 96kts
12-Dec-17 14:34 45.574777 -122.569429 118 1105ft 109kts
12-Dec-17 14:35 45.560378 -122.531374 118 2188ft 110kts
12-Dec-17 14:36 45.546279 -122.492441 94 3184ft 112kts
12-Dec-17 14:36 45.566265 -122.487146 335 3938ft 113kts
12-Dec-17 14:38 45.600324 -122.506513 335 4950ft 114kts
12-Dec-17 14:38 45.624835 -122.521232 337 5623ft 115kts
12-Dec-17 14:40 45.659931 -122.541313 338 6498ft 117kts
12-Dec-17 14:40 45.685190 -122.555775 338 7089ft 118kts
12-Dec-17 14:42 45.721076 -122.576334 338 7879ft 120kts
12-Dec-17 14:42 45.749771 -122.592206 348 8005ft 148kts
12-Dec-17 14:43 45.793210 -122.602879 350 8003ft 166kts
12-Dec-17 14:44 45.839395 -122.614363 350 8001ft 170kts
12-Dec-17 14:45 45.886433 -122.626081 350 8001ft 172kts
12-Dec-17 14:46 45.933551 -122.637838 350 8002ft 172kts
12-Dec-17 14:47 45.980171 -122.649498 350 8000ft 165kts
12-Dec-17 14:48 46.024578 -122.660611 350 8000ft 159kts
12-Dec-17 14:49 46.067743 -122.671423 350 8006ft 156kts
12-Dec-17 14:50 46.110186 -122.682108 350 8011ft 155kts
12-Dec-17 14:51 46.152924 -122.692884 350 8011ft 156kts
12-Dec-17 14:52 46.195671 -122.703654 350 8011ft 156kts
12-Dec-17 14:53 46.238518 -122.714459 350 8010ft 157kts
12-Dec-17 14:54 46.281461 -122.725309 350 8011ft 157kts
12-Dec-17 14:55 46.324376 -122.736168 350 8010ft 157kts
12-Dec-17 14:56 46.367300 -122.747047 350 8011ft 157kts
12-Dec-17 14:57 46.410352 -122.757969 350 8011ft 157kts
12-Dec-17 14:58 46.455710 -122.769465 350 7537ft 178kts
12-Dec-17 14:59 46.505309 -122.782075 350 6807ft 183kts
12-Dec-17 15:00 46.555241 -122.794819 350 6076ft 183kts
12-Dec-17 15:01 46.602087 -122.806812 350 6009ft 164kts
12-Dec-17 15:02 46.639706 -122.816438 350 6009ft 161kts
12-Dec-17 15:03 46.683639 -122.827698 350 6011ft 160kts
12-Dec-17 15:04 46.727607 -122.838658 356 6007ft 160kts
12-Dec-17 15:05 46.767923 -122.812880 26 6011ft 159kts
12-Dec-17 15:06 46.808790 -122.783122 26 5613ft 169kts
12-Dec-17 15:07 46.851598 -122.751926 26 5117ft 173kts
12-Dec-17 15:08 46.893145 -122.721633 26 4848ft 164kts
12-Dec-17 15:09 46.937822 -122.710389 3 4348ft 165kts
12-Dec-17 15:10 46.983574 -122.703519 7 3850ft 166kts
12-Dec-17 15:11 47.029190 -122.695213 7 3353ft 166kts
12-Dec-17 15:12 47.074541 -122.686990 7 3011ft 157kts
12-Dec-17 15:13 47.115666 -122.679514 7 3009ft 145kts
12-Dec-17 15:14 47.154755 -122.679176 326 3010ft 142kts
12-Dec-17 15:15 47.167536 -122.732105 281 3011ft 141kts
12-Dec-17 15:16 47.175309 -122.788873 281 3011ft 141kts
12-Dec-17 15:17 47.171839 -122.842575 216 3010ft 141kts
12-Dec-17 15:18 47.134813 -122.855817 191 3009ft 134kts
12-Dec-17 15:19 47.099545 -122.866277 191 2708ft 120kts
12-Dec-17 15:20 47.068780 -122.875376 191 2071ft 111kts
12-Dec-17 15:21 47.038493 -122.884217 190 1472ft 111kts
12-Dec-17 15:23 47.008184 -122.892752 190 876ft 111kts
12-Dec-17 15:24 46.977837 -122.902123 192 284ft 110kts
12-Dec-17 15:25 46.964071 -122.906201 191 195ft 10kts
12-Dec-17 15:26 46.963417 -122.905187 92 195ft 0kts

Navigation Log

Ident Type
Flight plan parsing failed, navigation log unavailable